createdAt,value
2018-02-21T00:01:10.770Z,79.10
2018-02-21T00:03:38.892Z,79.60
2018-02-21T00:06:07.801Z,80.70
2018-02-21T00:08:35.941Z,80.00
2018-02-21T00:11:04.177Z,80.50
2018-02-21T00:13:32.333Z,80.20
2018-02-21T00:16:01.246Z,78.80
2018-02-21T00:18:30.562Z,78.70
2018-02-21T00:20:58.700Z,78.80
2018-02-21T00:23:26.817Z,78.80
2018-02-21T00:25:54.960Z,79.80
2018-02-21T00:28:23.097Z,79.30
2018-02-21T00:30:52.402Z,79.90
2018-02-21T00:33:21.297Z,79.60
2018-02-21T00:35:49.452Z,79.50
2018-02-21T00:38:18.377Z,78.90
2018-02-21T00:40:46.535Z,78.90
2018-02-21T00:43:14.662Z,78.80
2018-02-21T00:45:42.806Z,79.10
2018-02-21T00:48:10.940Z,79.70
2018-02-21T00:50:39.085Z,79.80
2018-02-21T00:53:07.205Z,79.20
2018-02-21T00:55:35.344Z,79.20
2018-02-21T00:58:03.469Z,79.40
2018-02-21T01:00:31.627Z,79.60
2018-02-21T01:02:59.769Z,79.00
2018-02-21T01:05:27.924Z,78.60
2018-02-21T01:07:56.050Z,79.10
2018-02-21T01:10:24.189Z,77.80
2018-02-21T01:12:52.368Z,77.60
2018-02-21T01:15:21.266Z,78.40
2018-02-21T01:17:50.185Z,78.30
2018-02-21T01:20:18.313Z,78.20
2018-02-21T01:22:46.471Z,78.30
2018-02-21T01:25:15.569Z,78.10
2018-02-21T01:27:43.731Z,78.50
2018-02-21T01:30:11.855Z,79.10
2018-02-21T01:32:40.766Z,79.30
2018-02-21T01:35:09.918Z,79.30
2018-02-21T01:37:39.413Z,78.90
2018-02-21T01:40:07.529Z,78.30
2018-02-21T01:42:35.673Z,78.80
2018-02-21T01:45:04.217Z,79.20
2018-02-21T01:47:32.373Z,79.30
2018-02-21T01:50:00.496Z,80.20
2018-02-21T01:52:28.659Z,79.80
2018-02-21T01:54:56.780Z,79.90
2018-02-21T01:57:24.929Z,80.40
2018-02-21T01:59:53.824Z,80.50
2018-02-21T02:02:22.725Z,79.60
2018-02-21T02:04:51.617Z,80.40
2018-02-21T02:07:20.529Z,80.40
2018-02-21T02:09:48.657Z,80.30
2018-02-21T02:12:16.807Z,80.60
2018-02-21T02:14:45.692Z,80.20
2018-02-21T02:17:13.854Z,80.20
2018-02-21T02:19:41.978Z,79.20
2018-02-21T02:22:10.894Z,81.30
2018-02-21T02:24:39.018Z,80.40
2018-02-21T02:27:07.929Z,82.10
2018-02-21T02:29:36.062Z,82.10
2018-02-21T02:32:04.209Z,82.20
2018-02-21T02:34:32.328Z,82.30
2018-02-21T02:37:00.468Z,82.20
2018-02-21T02:39:40.837Z,82.00
2018-02-21T02:42:08.977Z,82.20
2018-02-21T02:44:37.872Z,81.30
2018-02-21T02:47:06.834Z,81.20
2018-02-21T02:49:34.974Z,80.40
2018-02-21T02:52:03.122Z,80.90
2018-02-21T02:54:31.247Z,80.40
2018-02-21T02:56:59.411Z,80.50
2018-02-21T02:59:27.566Z,81.60
2018-02-21T03:01:55.721Z,82.30
2018-02-21T03:04:23.859Z,82.90
2018-02-21T03:06:52.018Z,81.90
2018-02-21T03:09:20.149Z,81.50
2018-02-21T03:11:48.314Z,80.80
2018-02-21T03:14:16.448Z,80.30
2018-02-21T03:16:44.604Z,79.90
2018-02-21T03:19:13.496Z,79.20
2018-02-21T03:21:41.658Z,79.10
2018-02-21T03:24:10.226Z,79.10
2018-02-21T03:26:38.378Z,78.80
2018-02-21T03:29:06.601Z,78.20
2018-02-21T03:31:34.779Z,77.20
2018-02-21T03:34:02.917Z,77.30
2018-02-21T03:36:31.070Z,77.70
2018-02-21T03:38:59.206Z,78.60
2018-02-21T03:41:28.628Z,79.20
2018-02-21T03:43:57.520Z,80.40
2018-02-21T03:46:26.437Z,80.10
2018-02-21T03:48:54.590Z,80.10
2018-02-21T03:51:23.480Z,79.10
2018-02-21T03:53:52.401Z,79.30
2018-02-21T03:56:20.536Z,79.20
2018-02-21T03:58:50.612Z,80.10
2018-02-21T04:01:18.754Z,79.70
2018-02-21T04:03:46.893Z,79.40
2018-02-21T04:06:15.026Z,79.00
2018-02-21T04:08:43.186Z,79.00
2018-02-21T04:11:11.323Z,81.10
2018-02-21T04:13:40.260Z,81.90
2018-02-21T04:16:08.398Z,81.90
2018-02-21T04:18:37.317Z,81.90
2018-02-21T04:21:05.452Z,81.80
2018-02-21T04:23:34.372Z,82.60
2018-02-21T04:26:02.530Z,82.60
2018-02-21T04:28:31.451Z,82.30
2018-02-21T04:30:59.585Z,82.30
2018-02-21T04:33:28.506Z,82.90
2018-02-21T04:35:56.626Z,82.70
2018-02-21T04:38:24.790Z,83.10
2018-02-21T04:40:54.286Z,82.70
2018-02-21T04:43:22.445Z,82.80
2018-02-21T04:45:50.581Z,82.80
2018-02-21T04:48:19.502Z,81.90
2018-02-21T04:50:49.016Z,81.70
2018-02-21T04:53:17.175Z,81.70
2018-02-21T04:56:00.201Z,81.40
2018-02-21T04:58:35.968Z,82.10
2018-02-21T05:01:04.092Z,82.10
2018-02-21T05:03:33.748Z,82.80
2018-02-21T05:06:01.876Z,82.80
2018-02-21T05:08:30.805Z,82.00
2018-02-21T05:10:59.008Z,81.90
2018-02-21T05:13:27.646Z,81.40
2018-02-21T05:15:55.760Z,80.90
2018-02-21T05:18:23.911Z,81.60
2018-02-21T05:20:52.092Z,82.80
2018-02-21T05:23:20.261Z,83.00
2018-02-21T05:25:48.400Z,82.30
2018-02-21T05:28:17.314Z,82.60
2018-02-21T05:30:45.444Z,82.50
2018-02-21T05:33:13.601Z,82.20
2018-02-21T05:35:41.822Z,81.80
2018-02-21T05:38:10.731Z,82.20
2018-02-21T05:40:38.857Z,82.20
2018-02-21T05:43:07.011Z,81.80
2018-02-21T05:45:35.149Z,82.00
2018-02-21T05:48:03.298Z,82.30
2018-02-21T05:50:32.186Z,83.40
2018-02-21T05:53:01.124Z,83.60
2018-02-21T05:55:29.248Z,83.50
2018-02-21T05:57:58.170Z,82.90
2018-02-21T06:00:26.295Z,82.90
2018-02-21T06:02:55.587Z,83.60
2018-02-21T06:05:23.714Z,84.20
2018-02-21T06:07:54.510Z,84.10
2018-02-21T06:10:22.868Z,83.30
2018-02-21T06:12:51.038Z,83.70
2018-02-21T06:15:19.167Z,82.80
2018-02-21T06:17:48.085Z,83.20
2018-02-21T06:20:17.141Z,83.20
2018-02-21T06:22:46.065Z,83.20
2018-02-21T06:25:14.192Z,83.10
2018-02-21T06:27:44.694Z,82.90
2018-02-21T06:30:12.823Z,82.80
2018-02-21T06:32:41.741Z,82.50
2018-02-21T06:35:09.864Z,82.50
2018-02-21T06:37:38.022Z,83.10
2018-02-21T06:40:06.165Z,82.30
2018-02-21T06:42:34.341Z,82.00
2018-02-21T06:45:02.466Z,81.70
2018-02-21T06:47:31.065Z,81.10
2018-02-21T06:49:59.939Z,80.20
2018-02-21T06:52:28.087Z,80.00
2018-02-21T06:54:56.210Z,79.50
2018-02-21T06:57:25.114Z,76.40
2018-02-21T06:59:53.262Z,76.30
2018-02-21T07:02:35.458Z,73.40
2018-02-21T07:05:04.963Z,73.40
2018-02-21T07:07:33.090Z,72.60
2018-02-21T07:10:01.257Z,73.00
2018-02-21T07:12:29.397Z,72.30
2018-02-21T07:14:58.350Z,70.90
2018-02-21T07:17:26.466Z,70.80
2018-02-21T07:19:55.401Z,69.70
2018-02-21T07:22:24.306Z,67.40
2018-02-21T07:24:52.446Z,66.90
2018-02-21T07:27:20.993Z,65.00
2018-02-21T07:29:50.294Z,63.70
2018-02-21T07:32:19.199Z,64.30
2018-02-21T07:34:47.378Z,64.30
2018-02-21T07:37:15.664Z,65.00
2018-02-21T07:39:43.862Z,64.20
2018-02-21T07:42:11.990Z,63.10
2018-02-21T07:44:40.905Z,62.20
2018-02-21T07:47:09.769Z,62.20
2018-02-21T07:49:38.686Z,59.10
2018-02-21T07:52:06.829Z,59.10
2018-02-21T07:54:36.388Z,57.80
2018-02-21T07:57:04.618Z,58.20
2018-02-21T07:59:34.900Z,56.60
2018-02-21T08:02:03.230Z,56.60
2018-02-21T08:04:33.241Z,57.20
2018-02-21T08:07:01.517Z,56.00
2018-02-21T08:09:30.430Z,53.70
2018-02-21T08:11:58.791Z,53.70
2018-02-21T08:14:27.993Z,52.30
2018-02-21T08:16:56.162Z,52.20
2018-02-21T08:19:25.806Z,50.10
2018-02-21T08:21:54.037Z,50.10
2018-02-21T08:24:22.313Z,50.40
2018-02-21T08:26:51.848Z,50.00
2018-02-21T08:29:20.318Z,50.00
2018-02-21T08:31:49.771Z,46.90
2018-02-21T08:34:17.961Z,45.20
2018-02-21T08:36:46.159Z,44.50
2018-02-21T08:39:15.078Z,40.60
2018-02-21T08:41:43.221Z,40.50
2018-02-21T08:44:12.818Z,38.50
2018-02-21T08:46:41.072Z,39.60
2018-02-21T08:49:10.195Z,38.80
2018-02-21T08:51:39.248Z,38.10
2018-02-21T08:54:07.402Z,38.00
2018-02-21T08:56:35.538Z,35.40
2018-02-21T08:59:03.742Z,32.90
2018-02-21T09:01:32.494Z,33.30
2018-02-21T09:04:00.687Z,35.40
2018-02-21T09:06:29.402Z,38.10
2018-02-21T09:08:57.607Z,40.50
2018-02-21T09:11:26.088Z,42.20
2018-02-21T09:13:54.349Z,43.50
2018-02-21T09:16:22.478Z,44.00
2018-02-21T09:18:50.635Z,44.80
2018-02-21T09:21:19.702Z,46.30
2018-02-21T09:23:52.693Z,47.20
2018-02-21T09:26:21.256Z,47.10
2018-02-21T09:28:49.401Z,47.20
2018-02-21T09:31:17.648Z,48.70
2018-02-21T09:33:47.571Z,50.00
2018-02-21T09:36:15.829Z,50.80
2018-02-21T09:38:44.655Z,50.50
2018-02-21T09:41:12.878Z,50.10
2018-02-21T09:43:41.098Z,50.60
2018-02-21T09:46:11.324Z,52.10
2018-02-21T09:48:39.562Z,52.00
2018-02-21T09:51:07.746Z,51.10
2018-02-21T09:53:36.328Z,50.80
2018-02-21T09:56:04.485Z,50.10
2018-02-21T09:58:32.732Z,47.80
2018-02-21T10:01:00.998Z,48.20
2018-02-21T10:03:30.510Z,50.20
2018-02-21T10:05:58.822Z,50.20
2018-02-21T10:08:27.106Z,51.00
2018-02-21T10:10:55.271Z,51.30
2018-02-21T10:13:23.397Z,51.10
2018-02-21T10:15:51.567Z,52.20
2018-02-21T10:18:19.721Z,52.30
2018-02-21T10:20:48.706Z,54.70
2018-02-21T10:23:17.992Z,55.60
2018-02-21T10:25:46.143Z,55.60
2018-02-21T10:28:14.998Z,55.50
2018-02-21T10:30:43.289Z,55.80
2018-02-21T10:33:11.503Z,55.90
2018-02-21T10:35:39.705Z,56.30
2018-02-21T10:38:08.595Z,55.80
2018-02-21T10:40:36.780Z,55.80
2018-02-21T10:43:04.944Z,55.50
2018-02-21T10:45:33.784Z,55.90
2018-02-21T10:48:03.736Z,55.30
2018-02-21T10:50:34.118Z,55.40
2018-02-21T10:53:02.949Z,55.60
2018-02-21T10:55:31.550Z,54.30
2018-02-21T10:57:59.690Z,50.40
2018-02-21T11:00:33.466Z,49.50
2018-02-21T11:03:03.170Z,49.10
2018-02-21T11:05:32.156Z,49.10
2018-02-21T11:08:00.474Z,48.90
2018-02-21T11:10:28.884Z,48.60
2018-02-21T11:12:57.773Z,48.50
2018-02-21T11:15:26.007Z,48.80
2018-02-21T11:17:54.411Z,48.40
2018-02-21T11:20:22.681Z,48.50
2018-02-21T11:22:50.813Z,48.40
2018-02-21T11:25:18.958Z,48.90
2018-02-21T11:27:47.865Z,49.60
2018-02-21T11:30:16.020Z,49.60
2018-02-21T11:32:44.961Z,51.90
2018-02-21T11:35:13.102Z,51.80
2018-02-21T11:37:41.230Z,51.00
2018-02-21T11:40:09.376Z,51.70
2018-02-21T11:42:37.508Z,52.30
2018-02-21T11:45:06.788Z,53.10
2018-02-21T11:47:35.021Z,53.10
2018-02-21T11:50:03.295Z,53.10
2018-02-21T11:52:31.417Z,54.40
2018-02-21T11:55:00.672Z,54.90
2018-02-21T11:57:29.730Z,55.40
2018-02-21T11:59:58.686Z,55.40
2018-02-21T12:02:26.821Z,55.40
2018-02-21T12:04:54.964Z,54.30
2018-02-21T12:07:23.854Z,54.90
2018-02-21T12:09:53.605Z,54.60
2018-02-21T12:12:22.081Z,54.60
2018-02-21T12:14:50.241Z,55.40
2018-02-21T12:17:18.369Z,53.90
2018-02-21T12:19:46.529Z,55.40
2018-02-21T12:22:14.653Z,56.40
2018-02-21T12:24:43.584Z,55.30
2018-02-21T12:27:11.712Z,55.30
2018-02-21T12:29:40.630Z,55.20
2018-02-21T12:32:08.752Z,55.20
2018-02-21T12:34:37.528Z,56.20
2018-02-21T12:37:06.578Z,56.60
2018-02-21T12:39:34.729Z,56.60
2018-02-21T12:42:03.995Z,56.20
2018-02-21T12:44:32.693Z,56.20
2018-02-21T12:47:00.977Z,56.80
2018-02-21T12:49:30.788Z,56.40
2018-02-21T12:51:59.000Z,56.70
2018-02-21T12:54:27.162Z,56.10
2018-02-21T12:56:56.984Z,56.30
2018-02-21T12:59:25.110Z,56.30
2018-02-21T13:01:53.278Z,56.30
2018-02-21T13:04:21.385Z,56.50
2018-02-21T13:06:50.302Z,56.50
2018-02-21T13:09:18.421Z,56.50
2018-02-21T13:11:46.566Z,56.50
2018-02-21T13:14:14.697Z,56.00
2018-02-21T13:16:43.606Z,55.60
2018-02-21T13:19:11.729Z,55.50
2018-02-21T13:21:39.882Z,55.80
2018-02-21T13:24:08.027Z,56.30
2018-02-21T13:26:36.185Z,56.60
2018-02-21T13:29:05.072Z,55.70
2018-02-21T13:31:33.986Z,54.20
2018-02-21T13:34:02.684Z,54.20
2018-02-21T13:36:30.838Z,52.60
2018-02-21T13:38:58.969Z,53.10
2018-02-21T13:41:27.103Z,53.40
2018-02-21T13:43:56.083Z,53.60
2018-02-21T13:46:24.265Z,53.60
2018-02-21T13:48:52.390Z,55.00
2018-02-21T13:51:20.531Z,54.40
2018-02-21T13:53:48.653Z,53.40
2018-02-21T13:56:18.290Z,54.60
2018-02-21T13:58:46.421Z,54.60
2018-02-21T14:01:14.575Z,54.20
2018-02-21T14:03:42.701Z,53.50
2018-02-21T14:06:10.860Z,54.60
2018-02-21T14:08:39.749Z,55.70
2018-02-21T14:11:08.660Z,55.20
2018-02-21T14:13:36.785Z,55.10
2018-02-21T14:16:04.966Z,54.80
2018-02-21T14:18:33.092Z,54.20
2018-02-21T14:21:01.245Z,54.00
2018-02-21T14:23:30.129Z,54.70
2018-02-21T14:25:59.049Z,54.60
2018-02-21T14:28:27.167Z,54.60
2018-02-21T14:30:55.323Z,54.10
2018-02-21T14:33:23.453Z,54.40
2018-02-21T14:35:51.614Z,54.80
2018-02-21T14:38:20.505Z,54.20
2018-02-21T14:40:49.430Z,53.80
2018-02-21T14:43:21.372Z,53.80
2018-02-21T14:45:49.512Z,54.10
2018-02-21T14:48:17.639Z,54.90
2018-02-21T14:50:45.781Z,54.60
2018-02-21T14:53:13.892Z,54.60
2018-02-21T14:55:42.042Z,54.30
2018-02-21T14:58:10.161Z,55.30
2018-02-21T15:00:39.075Z,54.20
2018-02-21T15:03:07.201Z,54.10
2018-02-21T15:05:35.386Z,54.30
2018-02-21T15:08:03.513Z,53.60
2018-02-21T15:10:31.648Z,52.20
2018-02-21T15:13:00.538Z,54.10
2018-02-21T15:15:29.461Z,54.20
2018-02-21T15:17:57.578Z,54.20
2018-02-21T15:20:25.745Z,54.50
2018-02-21T15:22:53.916Z,54.30
2018-02-21T15:25:22.035Z,54.70
2018-02-21T15:27:50.973Z,54.80
2018-02-21T15:30:19.150Z,54.70
2018-02-21T15:32:47.242Z,54.70
2018-02-21T15:35:15.364Z,54.90
2018-02-21T15:37:43.525Z,55.00
2018-02-21T15:40:11.654Z,55.50
2018-02-21T15:42:39.784Z,55.60
2018-02-21T15:45:07.952Z,56.40
2018-02-21T15:47:36.848Z,56.80
2018-02-21T15:50:04.966Z,56.80
2018-02-21T15:52:33.113Z,56.60
2018-02-21T15:55:01.225Z,56.40
2018-02-21T15:57:29.386Z,56.60
2018-02-21T15:59:57.507Z,57.10
2018-02-21T16:02:25.659Z,57.20
2018-02-21T16:04:53.778Z,57.30
2018-02-21T16:07:21.961Z,57.50
2018-02-21T16:09:50.849Z,57.50
2018-02-21T16:12:19.761Z,57.30
2018-02-21T16:14:47.889Z,57.30
2018-02-21T16:17:16.043Z,57.70
2018-02-21T16:19:44.181Z,57.60
2018-02-21T16:22:12.357Z,57.90
2018-02-21T16:24:40.515Z,58.30
2018-02-21T16:27:09.458Z,57.90
2018-02-21T16:29:37.621Z,57.90
2018-02-21T16:32:06.598Z,58.10
2018-02-21T16:34:34.938Z,58.60
2018-02-21T16:37:03.142Z,59.50
2018-02-21T16:39:31.317Z,60.30
2018-02-21T16:41:59.528Z,59.90
2018-02-21T16:44:28.250Z,59.80
2018-02-21T16:46:56.454Z,60.00
2018-02-21T16:49:26.043Z,59.50
2018-02-21T16:54:33.235Z,58.10
2018-02-21T16:57:09.897Z,58.30
2018-02-21T16:59:40.015Z,58.30
2018-02-21T17:02:10.297Z,61.10
2018-02-21T17:04:39.598Z,62.60
2018-02-21T17:07:07.765Z,63.60
2018-02-21T17:09:36.392Z,63.70
2018-02-21T17:12:04.524Z,63.70
2018-02-21T17:14:32.645Z,64.80
2018-02-21T17:17:00.797Z,65.70
2018-02-21T17:19:28.928Z,65.60
2018-02-21T17:21:57.077Z,65.80
2018-02-21T17:24:25.194Z,66.40
2018-02-21T17:26:56.988Z,67.10
2018-02-21T17:29:26.467Z,67.00
2018-02-21T17:31:54.605Z,67.20
2018-02-21T17:34:23.486Z,67.50
2018-02-21T17:36:51.624Z,67.60
2018-02-21T17:39:19.758Z,67.60
2018-02-21T17:41:47.910Z,67.90
2018-02-21T17:44:16.845Z,69.60
2018-02-21T17:46:44.982Z,68.90
2018-02-21T17:49:14.412Z,69.10
2018-02-21T17:51:42.564Z,69.10
2018-02-21T17:54:11.443Z,68.90
2018-02-21T17:56:40.348Z,68.50
2018-02-21T17:59:09.228Z,68.40
2018-02-21T18:01:38.156Z,68.40
2018-02-21T18:04:06.268Z,68.40
2018-02-21T18:06:34.386Z,68.40
2018-02-21T18:09:02.531Z,68.40
2018-02-21T18:11:30.677Z,68.00
2018-02-21T18:13:58.825Z,68.60
2018-02-21T18:16:26.943Z,69.60
2018-02-21T18:18:55.094Z,69.90
2018-02-21T18:21:38.908Z,69.20
2018-02-21T18:24:07.045Z,68.60
2018-02-21T18:26:35.920Z,70.60
2018-02-21T18:29:04.115Z,70.60
2018-02-21T18:31:34.986Z,71.20
2018-02-21T18:34:05.302Z,71.10
2018-02-21T18:36:33.516Z,70.80
2018-02-21T18:39:01.655Z,70.60
2018-02-21T18:41:29.792Z,70.00
2018-02-21T18:43:58.691Z,70.30
2018-02-21T18:46:27.575Z,70.30
2018-02-21T18:48:56.484Z,71.60
2018-02-21T18:51:24.596Z,71.50
2018-02-21T18:53:52.733Z,71.40
2018-02-21T18:56:20.863Z,71.50
2018-02-21T18:58:48.992Z,71.20
2018-02-21T19:01:17.219Z,70.60
2018-02-21T19:03:45.360Z,71.10
2018-02-21T19:06:13.481Z,73.50
2018-02-21T19:08:42.383Z,73.10
2018-02-21T19:11:10.956Z,73.00
2018-02-21T19:13:39.116Z,72.80
2018-02-21T19:16:07.228Z,73.50
2018-02-21T19:18:35.381Z,73.30
2018-02-21T19:21:04.264Z,72.20
2018-02-21T19:23:33.160Z,72.20
2018-02-21T19:26:02.045Z,72.20
2018-02-21T19:28:30.949Z,72.00
2018-02-21T19:30:59.077Z,72.00
2018-02-21T19:33:27.213Z,72.70
2018-02-21T19:35:55.337Z,72.20
2018-02-21T19:38:24.264Z,72.40
2018-02-21T19:40:52.401Z,72.40
2018-02-21T19:43:20.585Z,72.00
2018-02-21T19:45:48.696Z,72.20
2018-02-21T19:48:16.845Z,72.30
2018-02-21T19:50:45.740Z,71.50
2018-02-21T19:53:14.745Z,71.50
2018-02-21T19:55:42.900Z,71.40
2018-02-21T19:58:11.825Z,70.40
2018-02-21T20:00:39.968Z,70.40
2018-02-21T20:03:08.872Z,72.00
2018-02-21T20:05:37.767Z,72.60
2018-02-21T20:08:05.908Z,72.60
2018-02-21T20:10:34.029Z,72.50
2018-02-21T20:13:02.310Z,72.70
2018-02-21T20:15:30.446Z,73.30
2018-02-21T20:17:59.360Z,74.20
2018-02-21T20:20:27.483Z,74.10
2018-02-21T20:22:55.622Z,74.40
2018-02-21T20:25:23.741Z,74.30
2018-02-21T20:27:51.880Z,74.20
2018-02-21T20:30:20.420Z,75.10
2018-02-21T20:32:49.340Z,74.70
2018-02-21T20:35:17.506Z,74.70
2018-02-21T20:37:45.649Z,74.60
2018-02-21T20:40:13.993Z,73.30
2018-02-21T20:42:43.302Z,72.80
2018-02-21T20:45:17.144Z,72.80
2018-02-21T20:47:46.088Z,73.00
2018-02-21T20:50:14.200Z,73.00
2018-02-21T20:52:42.339Z,72.60
2018-02-21T20:55:10.468Z,72.30
2018-02-21T21:00:13.791Z,73.30
2018-02-21T21:02:41.900Z,73.30
2018-02-21T21:05:10.045Z,73.00
2018-02-21T21:07:38.201Z,73.10
2018-02-21T21:10:06.613Z,73.10
2018-02-21T21:12:35.788Z,73.20
2018-02-21T21:15:04.046Z,73.20
2018-02-21T21:17:33.087Z,73.50
2018-02-21T21:20:02.053Z,73.20
2018-02-21T21:22:30.180Z,73.20
2018-02-21T21:24:58.309Z,73.70
2018-02-21T21:27:26.437Z,73.00
2018-02-21T21:29:54.580Z,73.00
2018-02-21T21:32:22.854Z,71.40
2018-02-21T21:34:51.121Z,72.10
2018-02-21T21:37:19.344Z,72.30
2018-02-21T21:39:47.648Z,72.50
2018-02-21T21:42:16.617Z,72.10
2018-02-21T21:44:45.534Z,71.70
2018-02-21T21:47:13.656Z,71.60
2018-02-21T21:49:41.796Z,72.20
2018-02-21T21:52:09.924Z,73.00
2018-02-21T21:54:38.069Z,72.40
2018-02-21T21:57:06.192Z,72.40
2018-02-21T21:59:34.350Z,72.30
2018-02-21T22:02:03.241Z,72.40
2018-02-21T22:04:32.154Z,72.30
2018-02-21T22:07:00.269Z,72.30
2018-02-21T22:09:29.197Z,72.00
2018-02-21T22:11:58.092Z,72.40
2018-02-21T22:14:26.996Z,72.30
2018-02-21T22:16:55.121Z,72.10
2018-02-21T22:19:23.261Z,72.00
2018-02-21T22:21:51.400Z,72.30
2018-02-21T22:24:20.296Z,73.00
2018-02-21T22:26:49.182Z,72.80
2018-02-21T22:29:18.099Z,72.80
2018-02-21T22:31:46.212Z,72.70
2018-02-21T22:34:14.360Z,72.30
2018-02-21T22:36:42.480Z,72.30
2018-02-21T22:39:10.622Z,72.80
2018-02-21T22:41:38.732Z,73.10
2018-02-21T22:44:07.646Z,73.00
2018-02-21T22:46:36.462Z,73.00
2018-02-21T22:49:04.601Z,73.30
2018-02-21T22:51:33.526Z,73.80
2018-02-21T22:54:01.673Z,73.60
2018-02-21T22:56:29.798Z,73.70
2018-02-21T22:58:57.937Z,73.60
2018-02-21T23:01:26.057Z,72.90
2018-02-21T23:03:54.200Z,73.20
2018-02-21T23:06:22.319Z,73.90
2018-02-21T23:08:51.236Z,74.40
2018-02-21T23:11:19.352Z,74.30
2018-02-21T23:13:47.492Z,74.20
2018-02-21T23:16:15.604Z,73.80
2018-02-21T23:18:43.749Z,73.90
2018-02-21T23:21:11.865Z,73.60
2018-02-21T23:23:40.010Z,73.70
2018-02-21T23:26:08.125Z,74.20
2018-02-21T23:28:37.631Z,73.70
2018-02-21T23:31:06.509Z,73.40
2018-02-21T23:33:34.650Z,73.40
2018-02-21T23:36:02.765Z,74.10
2018-02-21T23:38:31.694Z,73.90
2018-02-21T23:40:59.820Z,73.20
2018-02-21T23:43:27.936Z,72.70
2018-02-21T23:45:56.084Z,73.00
2018-02-21T23:48:24.979Z,73.00
2018-02-21T23:50:54.174Z,73.20
2018-02-21T23:53:23.048Z,73.20
2018-02-21T23:55:51.196Z,73.10
2018-02-21T23:58:19.320Z,73.10
